createdAt,value
2023-05-17T00:00:12.893Z,27.29
2023-05-17T00:02:41.555Z,27.33
2023-05-17T00:05:12.679Z,27.38
2023-05-17T00:07:41.269Z,27.43
2023-05-17T00:10:10.074Z,27.47
2023-05-17T00:12:38.533Z,27.52
2023-05-17T00:15:07.597Z,27.59
2023-05-17T00:17:38.417Z,27.64
2023-05-17T00:20:07.718Z,27.69
2023-05-17T00:22:36.332Z,27.74
2023-05-17T00:25:05.827Z,27.78
2023-05-17T00:27:34.241Z,27.83
2023-05-17T00:30:02.662Z,27.88
2023-05-17T00:32:31.094Z,27.93
2023-05-17T00:35:00.058Z,27.98
2023-05-17T00:37:28.629Z,28.05
2023-05-17T00:39:57.081Z,28.10
2023-05-17T00:42:25.611Z,28.15
2023-05-17T00:44:54.065Z,28.20
2023-05-17T00:47:22.572Z,28.25
2023-05-17T00:49:51.093Z,28.30
2023-05-17T00:52:20.280Z,28.35
2023-05-17T00:54:48.829Z,28.39
2023-05-17T00:57:17.762Z,28.46
2023-05-17T00:59:46.884Z,28.50
2023-05-17T01:02:15.337Z,28.56
2023-05-17T01:04:43.890Z,28.61
2023-05-17T01:07:12.664Z,28.68
2023-05-17T01:09:41.265Z,28.74
2023-05-17T01:12:40.071Z,28.83
2023-05-17T01:15:25.216Z,28.91
2023-05-17T01:18:12.730Z,28.98
2023-05-17T01:20:46.681Z,29.05
2023-05-17T01:23:33.412Z,29.11
2023-05-17T01:26:36.582Z,29.20
2023-05-17T01:29:10.128Z,29.27
2023-05-17T01:31:39.484Z,29.34
2023-05-17T01:34:11.438Z,29.40
2023-05-17T01:36:39.917Z,29.46
2023-05-17T01:39:09.627Z,29.53
2023-05-17T01:41:48.391Z,29.59
2023-05-17T01:44:27.398Z,29.63
2023-05-17T01:47:07.310Z,29.67
2023-05-17T01:49:40.347Z,29.74
2023-05-17T01:52:20.649Z,29.80
2023-05-17T01:54:52.136Z,29.88
2023-05-17T01:57:26.805Z,29.94
2023-05-17T02:00:01.014Z,29.99
2023-05-17T02:02:30.238Z,30.04
2023-05-17T02:04:59.491Z,30.08
2023-05-17T02:07:28.108Z,30.14
2023-05-17T02:09:56.586Z,30.19
2023-05-17T02:12:26.294Z,30.25
2023-05-17T02:14:54.725Z,30.30
2023-05-17T02:17:23.211Z,30.35
2023-05-17T02:19:51.740Z,30.38
2023-05-17T02:22:20.152Z,30.44
2023-05-17T02:24:49.857Z,30.50
2023-05-17T02:27:18.358Z,30.56
2023-05-17T02:29:46.793Z,30.62
2023-05-17T02:32:15.252Z,30.66
2023-05-17T02:34:43.676Z,30.70
2023-05-17T02:37:12.101Z,30.75
2023-05-17T02:39:40.648Z,30.79
2023-05-17T02:42:09.267Z,30.85
2023-05-17T02:44:37.673Z,30.92
2023-05-17T02:47:06.422Z,30.99
2023-05-17T02:49:34.914Z,31.03
2023-05-17T02:52:05.202Z,31.10
2023-05-17T02:54:33.678Z,31.17
2023-05-17T02:57:02.310Z,31.25
2023-05-17T02:59:30.747Z,31.31
2023-05-17T03:01:59.182Z,31.39
2023-05-17T03:04:27.736Z,31.47
2023-05-17T03:06:56.896Z,31.54
2023-05-17T03:09:25.325Z,31.59
2023-05-17T03:11:53.786Z,31.65
2023-05-17T03:14:22.463Z,31.73
2023-05-17T03:16:50.902Z,31.79
2023-05-17T03:19:19.517Z,31.85
2023-05-17T03:21:48.087Z,31.90
2023-05-17T03:24:16.660Z,31.94
2023-05-17T03:26:45.203Z,32.01
2023-05-17T03:29:13.640Z,32.08
2023-05-17T03:31:42.218Z,32.15
2023-05-17T03:34:10.697Z,32.20
2023-05-17T03:36:41.484Z,32.28
2023-05-17T03:39:09.990Z,32.32
2023-05-17T03:41:38.568Z,32.43
2023-05-17T03:44:07.172Z,32.50
2023-05-17T03:46:35.628Z,32.58
2023-05-17T03:49:04.509Z,32.66
2023-05-17T03:51:32.950Z,32.75
2023-05-17T03:54:02.550Z,32.87
2023-05-17T03:56:31.076Z,32.98
2023-05-17T03:58:59.636Z,33.09
2023-05-17T04:01:28.332Z,33.19
2023-05-17T04:03:56.965Z,33.30
2023-05-17T04:06:25.809Z,33.37
2023-05-17T04:08:55.980Z,33.47
2023-05-17T04:11:27.563Z,33.56
2023-05-17T04:13:57.822Z,33.63
2023-05-17T04:16:26.303Z,33.72
2023-05-17T04:18:55.081Z,33.79
2023-05-17T04:21:23.719Z,33.88
2023-05-17T04:23:52.537Z,33.96
2023-05-17T04:26:21.621Z,34.05
2023-05-17T04:28:50.055Z,34.16
2023-05-17T04:31:18.999Z,34.25
2023-05-17T04:33:47.891Z,34.34
2023-05-17T04:36:16.883Z,34.45
2023-05-17T04:38:45.337Z,34.54
2023-05-17T04:41:13.780Z,34.65
2023-05-17T04:43:43.211Z,34.75
2023-05-17T04:46:11.712Z,34.84
2023-05-17T04:48:40.322Z,34.93
2023-05-17T04:51:08.818Z,35.03
2023-05-17T04:53:37.310Z,35.11
2023-05-17T04:56:05.956Z,35.17
2023-05-17T04:58:34.566Z,35.23
2023-05-17T05:01:03.008Z,35.27
2023-05-17T05:03:31.470Z,35.30
2023-05-17T05:05:59.935Z,35.37
2023-05-17T05:08:28.355Z,35.42
2023-05-17T05:10:56.968Z,35.50
2023-05-17T05:13:25.459Z,35.55
2023-05-17T05:15:53.935Z,35.61
2023-05-17T05:18:22.705Z,35.68
2023-05-17T05:20:51.320Z,35.75
2023-05-17T05:23:19.767Z,35.80
2023-05-17T05:25:48.588Z,35.82
2023-05-17T05:28:17.153Z,35.84
2023-05-17T05:30:45.728Z,35.91
2023-05-17T05:33:14.357Z,35.96
2023-05-17T05:35:42.879Z,36.04
2023-05-17T05:38:11.372Z,36.11
2023-05-17T05:40:39.807Z,36.14
2023-05-17T05:43:08.223Z,36.22
2023-05-17T05:45:36.791Z,36.19
2023-05-17T05:48:06.507Z,36.23
2023-05-17T05:50:36.232Z,36.22
2023-05-17T05:53:17.482Z,36.27
2023-05-17T05:55:47.876Z,36.31
2023-05-17T05:58:16.781Z,36.31
2023-05-17T06:00:45.201Z,36.34
2023-05-17T06:03:13.667Z,36.36
2023-05-17T06:05:42.330Z,36.42
2023-05-17T06:08:10.897Z,36.47
2023-05-17T06:10:39.454Z,36.54
2023-05-17T06:13:08.298Z,36.62
2023-05-17T06:15:37.867Z,36.66
2023-05-17T06:18:06.636Z,36.73
2023-05-17T06:20:35.194Z,36.79
2023-05-17T06:23:06.084Z,36.88
2023-05-17T06:25:34.547Z,36.96
2023-05-17T06:28:04.658Z,36.82
2023-05-17T06:30:33.275Z,36.61
2023-05-17T06:33:01.901Z,36.49
2023-05-17T06:35:37.519Z,36.41
2023-05-17T06:38:12.768Z,36.42
2023-05-17T06:40:41.341Z,36.47
2023-05-17T06:43:09.753Z,36.57
2023-05-17T06:45:38.167Z,36.66
2023-05-17T06:48:06.871Z,36.78
2023-05-17T06:50:35.413Z,36.87
2023-05-17T06:53:04.157Z,36.86
2023-05-17T06:55:32.598Z,36.95
2023-05-17T06:58:01.514Z,36.85
2023-05-17T07:00:30.517Z,36.66
2023-05-17T07:02:59.391Z,36.52
2023-05-17T07:05:30.370Z,36.55
2023-05-17T07:08:00.777Z,36.58
2023-05-17T07:10:29.243Z,36.65
2023-05-17T07:12:57.736Z,36.74
2023-05-17T07:15:26.343Z,36.81
2023-05-17T07:17:55.008Z,36.87
2023-05-17T07:20:23.578Z,36.93
2023-05-17T07:22:52.022Z,36.99
2023-05-17T07:25:22.479Z,37.01
2023-05-17T07:27:51.008Z,37.02
2023-05-17T07:30:19.657Z,37.04
2023-05-17T07:32:48.150Z,37.02
2023-05-17T07:35:17.493Z,36.91
2023-05-17T07:37:47.177Z,36.85
2023-05-17T07:40:15.673Z,36.82
2023-05-17T07:42:44.179Z,36.72
2023-05-17T07:45:15.464Z,36.51
2023-05-17T07:47:44.085Z,36.32
2023-05-17T07:50:13.264Z,36.18
2023-05-17T07:52:41.816Z,36.17
2023-05-17T07:55:11.000Z,35.96
2023-05-17T07:57:39.450Z,35.74
2023-05-17T08:00:09.795Z,35.60
2023-05-17T08:02:38.336Z,35.57
2023-05-17T08:05:07.819Z,35.55
2023-05-17T08:07:36.301Z,35.55
2023-05-17T08:10:05.480Z,35.57
2023-05-17T08:12:34.048Z,35.60
2023-05-17T08:15:02.593Z,35.57
2023-05-17T08:17:31.106Z,35.53
2023-05-17T08:19:59.594Z,35.42
2023-05-17T08:22:28.533Z,35.34
2023-05-17T08:24:58.486Z,35.32
2023-05-17T08:27:28.094Z,35.32
2023-05-17T08:29:58.711Z,35.32
2023-05-17T08:32:27.309Z,35.34
2023-05-17T08:34:56.822Z,35.36
2023-05-17T08:37:25.998Z,35.39
2023-05-17T08:39:54.484Z,35.40
2023-05-17T08:42:27.712Z,35.36
2023-05-17T08:44:57.455Z,35.35
2023-05-17T08:47:35.183Z,35.33
2023-05-17T08:50:06.373Z,35.31
2023-05-17T08:52:36.650Z,35.28
2023-05-17T08:55:07.161Z,35.25
2023-05-17T08:57:40.246Z,35.23
2023-05-17T09:00:16.379Z,35.22
2023-05-17T09:02:45.021Z,35.25
2023-05-17T09:05:14.987Z,35.28
2023-05-17T09:07:43.977Z,35.30
2023-05-17T09:10:14.576Z,35.24
2023-05-17T09:12:43.484Z,35.20
2023-05-17T09:15:25.013Z,35.17
2023-05-17T09:17:55.523Z,35.17
2023-05-17T09:20:25.827Z,35.15
2023-05-17T09:22:57.020Z,35.16
2023-05-17T09:25:30.299Z,35.13
2023-05-17T09:28:03.629Z,35.13
2023-05-17T09:30:34.314Z,35.10
2023-05-17T09:33:11.455Z,35.13
2023-05-17T09:35:40.887Z,35.10
2023-05-17T09:38:14.072Z,35.06
2023-05-17T09:40:46.799Z,35.03
2023-05-17T09:43:16.143Z,34.95
2023-05-17T09:45:44.602Z,34.90
2023-05-17T09:48:13.193Z,34.82
2023-05-17T09:50:53.111Z,34.74
2023-05-17T09:53:33.198Z,34.66
2023-05-17T09:56:04.111Z,34.59
2023-05-17T09:58:38.894Z,34.51
2023-05-17T10:01:09.551Z,34.44
2023-05-17T10:03:39.350Z,34.34
2023-05-17T10:06:09.938Z,34.27
2023-05-17T10:08:46.190Z,34.22
2023-05-17T10:11:14.696Z,34.14
2023-05-17T10:14:06.984Z,34.05
2023-05-17T10:16:35.892Z,33.98
2023-05-17T10:19:05.139Z,33.94
2023-05-17T10:21:34.684Z,33.94
2023-05-17T10:24:07.808Z,33.92
2023-05-17T10:26:37.470Z,33.90
2023-05-17T10:29:07.474Z,33.90
2023-05-17T10:31:37.469Z,33.86
2023-05-17T10:34:07.527Z,33.82
2023-05-17T10:36:36.054Z,33.77
2023-05-17T10:39:08.960Z,33.72
2023-05-17T10:41:41.952Z,33.70
2023-05-17T10:44:14.984Z,33.67
2023-05-17T10:46:59.538Z,33.65
2023-05-17T10:49:32.801Z,33.62
2023-05-17T10:52:17.786Z,33.57
2023-05-17T10:54:51.084Z,33.54
2023-05-17T10:57:49.108Z,33.48
2023-05-17T11:00:22.115Z,33.42
2023-05-17T11:02:51.535Z,33.36
2023-05-17T11:05:28.359Z,33.30
2023-05-17T11:08:16.490Z,33.21
2023-05-17T11:11:12.553Z,33.13
2023-05-17T11:14:16.037Z,33.03
2023-05-17T11:16:45.132Z,32.94
2023-05-17T11:19:13.654Z,32.87
2023-05-17T11:21:49.705Z,32.79
2023-05-17T11:24:27.786Z,32.71
2023-05-17T11:26:59.238Z,32.64
2023-05-17T11:29:32.084Z,32.55
2023-05-17T11:32:00.682Z,32.47
2023-05-17T11:34:29.207Z,32.39
2023-05-17T11:36:57.966Z,32.33
2023-05-17T11:39:27.923Z,32.26
2023-05-17T11:41:57.623Z,32.21
2023-05-17T11:44:26.757Z,32.18
2023-05-17T11:47:04.219Z,32.12
2023-05-17T11:49:36.302Z,32.05
2023-05-17T11:52:07.481Z,31.99
2023-05-17T11:54:41.329Z,31.94
2023-05-17T11:57:10.794Z,31.90
2023-05-17T11:59:40.943Z,31.85
2023-05-17T12:02:09.445Z,31.81
2023-05-17T12:04:40.037Z,31.76
2023-05-17T12:07:12.169Z,31.74
2023-05-17T12:09:41.506Z,31.70
2023-05-17T12:12:10.577Z,31.66
2023-05-17T12:14:39.188Z,31.63
2023-05-17T12:17:10.686Z,31.60
2023-05-17T12:19:39.337Z,31.57
2023-05-17T12:22:15.079Z,31.52
2023-05-17T12:24:44.449Z,31.46
2023-05-17T12:27:13.038Z,31.41
2023-05-17T12:29:41.573Z,31.37
2023-05-17T12:32:12.081Z,31.35
2023-05-17T12:34:41.696Z,31.33
2023-05-17T12:37:11.430Z,31.30
2023-05-17T12:39:40.579Z,31.27
2023-05-17T12:42:10.273Z,31.25
2023-05-17T12:44:38.858Z,31.22
2023-05-17T12:47:07.578Z,31.21
2023-05-17T12:49:40.361Z,31.20
2023-05-17T12:52:08.996Z,31.20
2023-05-17T12:54:37.813Z,31.19
2023-05-17T12:57:16.150Z,31.17
2023-05-17T12:59:49.330Z,31.17
2023-05-17T13:02:18.676Z,31.15
2023-05-17T13:04:47.845Z,31.14
2023-05-17T13:07:26.009Z,31.13
2023-05-17T13:09:54.631Z,31.10
2023-05-17T13:12:26.609Z,31.08
2023-05-17T13:14:58.212Z,31.04
2023-05-17T13:17:28.821Z,31.02
2023-05-17T13:19:58.538Z,31.00
2023-05-17T13:22:27.571Z,30.98
2023-05-17T13:24:56.535Z,30.94
2023-05-17T13:27:24.984Z,30.89
2023-05-17T13:29:53.502Z,30.84
2023-05-17T13:32:23.049Z,30.79
2023-05-17T13:34:55.783Z,30.76
2023-05-17T13:37:24.285Z,30.72
2023-05-17T13:39:55.696Z,30.71
2023-05-17T13:42:24.789Z,30.69
2023-05-17T13:44:53.301Z,30.68
2023-05-17T13:47:22.249Z,30.67
2023-05-17T13:49:51.063Z,30.65
2023-05-17T13:52:19.906Z,30.66
2023-05-17T13:54:48.473Z,30.65
2023-05-17T13:57:17.044Z,30.66
2023-05-17T13:59:46.047Z,30.65
2023-05-17T14:02:14.636Z,30.64
2023-05-17T14:04:43.173Z,30.62
2023-05-17T14:07:11.655Z,30.60
2023-05-17T14:09:40.770Z,30.58
2023-05-17T14:12:09.387Z,30.56
2023-05-17T14:14:37.876Z,30.54
2023-05-17T14:17:06.469Z,30.53
2023-05-17T14:19:35.094Z,30.52
2023-05-17T14:22:03.674Z,30.50
2023-05-17T14:24:33.161Z,30.49
2023-05-17T14:27:03.498Z,30.45
2023-05-17T14:29:33.270Z,30.44
2023-05-17T14:32:01.759Z,30.40
2023-05-17T14:34:31.945Z,30.35
2023-05-17T14:37:00.417Z,30.31
2023-05-17T14:39:28.831Z,30.25
2023-05-17T14:41:57.763Z,30.21
2023-05-17T14:44:27.987Z,30.14
2023-05-17T14:46:56.478Z,30.09
2023-05-17T14:49:25.006Z,30.06
2023-05-17T14:51:53.586Z,30.02
2023-05-17T14:54:22.872Z,30.00
2023-05-17T14:56:51.444Z,29.95
2023-05-17T14:59:20.490Z,29.92
2023-05-17T15:01:48.999Z,29.89
2023-05-17T15:04:17.813Z,29.87
2023-05-17T15:06:46.807Z,29.84
2023-05-17T15:09:18.656Z,29.79
2023-05-17T15:11:47.207Z,29.76
2023-05-17T15:14:20.019Z,29.73
2023-05-17T15:16:49.642Z,29.68
2023-05-17T15:19:18.366Z,29.64
2023-05-17T15:21:47.595Z,29.61
2023-05-17T15:24:17.762Z,29.58
2023-05-17T15:26:46.601Z,29.53
2023-05-17T15:29:15.176Z,29.50
2023-05-17T15:31:43.621Z,29.46
2023-05-17T15:34:12.528Z,29.43
2023-05-17T15:36:41.174Z,29.41
2023-05-17T15:39:09.706Z,29.38
2023-05-17T15:41:38.457Z,29.35
2023-05-17T15:44:07.187Z,29.33
2023-05-17T15:46:35.703Z,29.30
2023-05-17T15:49:04.324Z,29.28
2023-05-17T15:51:32.841Z,29.24
2023-05-17T15:54:01.402Z,29.21
2023-05-17T15:56:30.052Z,29.17
2023-05-17T15:58:59.906Z,29.14
2023-05-17T16:01:30.338Z,29.10
2023-05-17T16:03:58.906Z,29.07
2023-05-17T16:06:27.614Z,29.04
2023-05-17T16:08:56.265Z,29.01
2023-05-17T16:11:25.601Z,29.00
2023-05-17T16:13:54.066Z,28.97
2023-05-17T16:16:22.545Z,28.94
2023-05-17T16:18:51.058Z,28.91
2023-05-17T16:21:19.633Z,28.89
2023-05-17T16:23:48.152Z,28.86
2023-05-17T16:26:16.719Z,28.83
2023-05-17T16:28:45.210Z,28.81
2023-05-17T16:31:13.894Z,28.78
2023-05-17T16:33:43.402Z,28.77
2023-05-17T16:36:13.334Z,28.75
2023-05-17T16:38:41.833Z,28.73
2023-05-17T16:41:10.419Z,28.70
2023-05-17T16:43:38.830Z,28.67
2023-05-17T16:46:07.349Z,28.65
2023-05-17T16:48:35.776Z,28.64
2023-05-17T16:51:04.244Z,28.62
2023-05-17T16:53:32.956Z,28.60
2023-05-17T16:56:01.732Z,28.60
2023-05-17T16:58:30.651Z,28.60
2023-05-17T17:00:59.256Z,28.60
2023-05-17T17:03:27.780Z,28.60
2023-05-17T17:05:56.317Z,28.60
2023-05-17T17:08:24.780Z,28.60
2023-05-17T17:10:53.185Z,28.61
2023-05-17T17:13:21.592Z,28.60
2023-05-17T17:15:52.013Z,28.60
2023-05-17T17:18:20.722Z,28.61
2023-05-17T17:20:49.192Z,28.64
2023-05-17T17:23:17.832Z,28.65
2023-05-17T17:25:46.450Z,28.65
2023-05-17T17:28:14.925Z,28.62
2023-05-17T17:30:43.500Z,28.63
2023-05-17T17:33:12.278Z,28.63
2023-05-17T17:35:40.812Z,28.63
2023-05-17T17:38:14.911Z,28.62
2023-05-17T17:40:43.394Z,28.63
2023-05-17T17:43:11.925Z,28.63
2023-05-17T17:45:40.547Z,28.62
2023-05-17T17:48:09.084Z,28.62
2023-05-17T17:50:37.682Z,28.60
2023-05-17T17:53:06.113Z,28.59
2023-05-17T17:55:34.815Z,28.58
2023-05-17T17:58:03.261Z,28.57
2023-05-17T18:00:31.997Z,28.56
2023-05-17T18:03:00.847Z,28.54
2023-05-17T18:05:29.460Z,28.55
2023-05-17T18:07:57.943Z,28.56
2023-05-17T18:10:26.434Z,28.56
2023-05-17T18:12:55.122Z,28.56
2023-05-17T18:15:23.625Z,28.55
2023-05-17T18:17:53.009Z,28.54
2023-05-17T18:20:23.699Z,28.50
2023-05-17T18:22:52.129Z,28.47
2023-05-17T18:25:21.439Z,28.44
2023-05-17T18:27:49.936Z,28.40
2023-05-17T18:30:19.583Z,28.35
2023-05-17T18:32:48.258Z,28.31
2023-05-17T18:35:17.005Z,28.27
2023-05-17T18:37:45.491Z,28.22
2023-05-17T18:40:16.110Z,28.18
2023-05-17T18:42:44.668Z,28.15
2023-05-17T18:45:13.168Z,28.12
2023-05-17T18:47:41.765Z,28.09
2023-05-17T18:50:11.117Z,28.05
2023-05-17T18:52:40.036Z,28.02
2023-05-17T18:55:08.702Z,27.98
2023-05-17T18:57:37.441Z,27.94
2023-05-17T19:00:06.321Z,27.90
2023-05-17T19:02:34.772Z,27.85
2023-05-17T19:05:03.300Z,27.80
2023-05-17T19:07:31.815Z,27.75
2023-05-17T19:10:00.336Z,27.71
2023-05-17T19:12:28.883Z,27.69
2023-05-17T19:14:57.439Z,27.66
2023-05-17T19:17:26.064Z,27.63
2023-05-17T19:19:54.553Z,27.60
2023-05-17T19:22:22.992Z,27.59
2023-05-17T19:24:51.778Z,27.57
2023-05-17T19:27:20.770Z,27.56
2023-05-17T19:29:49.944Z,27.55
2023-05-17T19:32:18.424Z,27.52
2023-05-17T19:34:47.097Z,27.50
2023-05-17T19:37:15.561Z,27.47
2023-05-17T19:39:43.996Z,27.45
2023-05-17T19:42:12.551Z,27.40
2023-05-17T19:44:41.088Z,27.39
2023-05-17T19:47:09.585Z,27.36
2023-05-17T19:49:38.277Z,27.35
2023-05-17T19:52:07.118Z,27.32
2023-05-17T19:54:35.635Z,27.30
2023-05-17T19:57:04.191Z,27.29
2023-05-17T19:59:32.832Z,27.27
2023-05-17T20:02:01.732Z,27.25
2023-05-17T20:04:30.203Z,27.24
2023-05-17T20:06:58.641Z,27.23
2023-05-17T20:09:31.093Z,27.22
2023-05-17T20:12:00.168Z,27.20
2023-05-17T20:14:29.213Z,27.16
2023-05-17T20:16:57.790Z,27.16
2023-05-17T20:19:26.416Z,27.13
2023-05-17T20:21:55.106Z,27.11
2023-05-17T20:24:25.774Z,27.08
2023-05-17T20:26:54.199Z,27.07
2023-05-17T20:29:22.610Z,27.04
2023-05-17T20:31:51.181Z,27.03
2023-05-17T20:34:19.750Z,27.01
2023-05-17T20:36:48.337Z,26.99
2023-05-17T20:39:16.904Z,26.96
2023-05-17T20:41:45.346Z,26.93
2023-05-17T20:44:19.608Z,26.90
2023-05-17T20:46:48.230Z,26.87
2023-05-17T20:49:18.013Z,26.85
2023-05-17T20:51:47.098Z,26.84
2023-05-17T20:54:15.927Z,26.82
2023-05-17T20:56:44.345Z,26.79
2023-05-17T20:59:13.165Z,26.76
2023-05-17T21:01:42.407Z,26.75
2023-05-17T21:04:12.144Z,26.74
2023-05-17T21:06:40.622Z,26.73
2023-05-17T21:09:09.366Z,26.71
2023-05-17T21:11:37.929Z,26.68
2023-05-17T21:14:06.585Z,26.67
2023-05-17T21:16:36.318Z,26.66
2023-05-17T21:19:04.977Z,26.65
2023-05-17T21:21:33.416Z,26.63
2023-05-17T21:24:01.964Z,26.61
2023-05-17T21:26:30.498Z,26.59
2023-05-17T21:28:59.001Z,26.57
2023-05-17T21:31:29.253Z,26.55
2023-05-17T21:33:59.550Z,26.54
2023-05-17T21:36:31.790Z,26.52
2023-05-17T21:39:02.835Z,26.52
2023-05-17T21:41:31.537Z,26.52
2023-05-17T21:44:01.722Z,26.51
2023-05-17T21:46:30.190Z,26.49
2023-05-17T21:49:01.796Z,26.50
2023-05-17T21:51:31.566Z,26.46
2023-05-17T21:54:03.113Z,26.43
2023-05-17T21:56:32.254Z,26.40
2023-05-17T21:59:02.189Z,26.40
2023-05-17T22:01:30.824Z,26.39
2023-05-17T22:04:01.781Z,26.36
2023-05-17T22:06:33.463Z,26.34
2023-05-17T22:09:03.208Z,26.31
2023-05-17T22:11:33.420Z,26.29
2023-05-17T22:14:06.696Z,26.28
2023-05-17T22:16:39.244Z,26.26
2023-05-17T22:19:19.726Z,26.25
2023-05-17T22:21:50.852Z,26.23
2023-05-17T22:24:22.482Z,26.22
2023-05-17T22:26:50.907Z,26.22
2023-05-17T22:29:20.678Z,26.19
2023-05-17T22:31:51.034Z,26.18
2023-05-17T22:34:23.593Z,26.16
2023-05-17T22:36:52.821Z,26.15
2023-05-17T22:39:23.516Z,26.14
2023-05-17T22:41:53.307Z,26.14
2023-05-17T22:44:25.401Z,26.14
2023-05-17T22:46:59.954Z,26.14
2023-05-17T22:49:28.638Z,26.15
2023-05-17T22:51:59.537Z,26.15
2023-05-17T22:54:27.989Z,26.16
2023-05-17T22:56:56.507Z,26.17
2023-05-17T22:59:24.950Z,26.18
2023-05-17T23:01:53.487Z,26.18
2023-05-17T23:04:27.058Z,26.18
2023-05-17T23:06:56.003Z,26.18
2023-05-17T23:09:24.738Z,26.21
2023-05-17T23:11:53.154Z,26.21
2023-05-17T23:14:22.821Z,26.22
2023-05-17T23:16:51.372Z,26.22
2023-05-17T23:19:19.909Z,26.23
2023-05-17T23:21:49.914Z,26.26
2023-05-17T23:24:18.636Z,26.26
2023-05-17T23:26:48.397Z,26.29
2023-05-17T23:29:16.802Z,26.29
2023-05-17T23:31:48.806Z,26.31
2023-05-17T23:34:17.425Z,26.34
2023-05-17T23:36:45.889Z,26.36
2023-05-17T23:39:14.435Z,26.38
2023-05-17T23:41:43.223Z,26.43
2023-05-17T23:44:12.048Z,26.45
2023-05-17T23:46:40.594Z,26.49
2023-05-17T23:49:09.038Z,26.53
2023-05-17T23:51:38.101Z,26.60
2023-05-17T23:54:06.825Z,26.65
2023-05-17T23:56:35.281Z,26.70
2023-05-17T23:59:03.711Z,26.73
